Airport View

Enter AWOS ICAO identifier for current METAR.

ex. KFNL

KLUG 120515Z AUTO 00000KT 10SM CLR M05/M05 A3051 RMK A01

12 Dec 2019 05:33

Frequency: 135.775

Phone: 931-270-1014

Other Area AWOS: KSYI - KMRC - KGZS - KTHA

TAF KBNA 112340Z 1200/1224 12003KT P6SM SKC FM121700 16010KT P6SM SCT250